Time;durP1;ratioP1;P1;durP2;ratioP2;P2;SDS_P1;SDS_P2;PMS_P1;PMS_P2;Temp;Humidity;BMP_temperature;BMP_pressure;BME280_temperature;BME280_humidity;BME280_pressure;Samples;Min_cycle;Max_cycle;Signal;HPM_P1;HPM_P2
2022/05/12 00:01:58;;;;;;;;;2.00;1.00;;;;;19.40;53.46;101108.94;5015835;28;45748;-89
2022/05/12 00:04:24;;;;;;;;;3.00;2.00;;;;;19.16;53.74;101075.09;5015461;28;45669;-85
2022/05/12 00:06:50;;;;;;;;;5.00;3.00;;;;;19.33;54.01;101116.94;5016710;28;45651;-88
2022/05/12 00:09:15;;;;;;;;;3.00;2.75;;;;;19.26;54.16;101109.81;5016123;28;45953;-88
2022/05/12 00:11:41;;;;;;;;;2.25;2.25;;;;;19.22;53.88;101116.00;5016008;28;45517;-88
2022/05/12 00:14:06;;;;;;;;;2.75;2.00;;;;;19.05;54.31;101091.91;5028826;28;45284;-89
2022/05/12 00:16:31;;;;;;;;;3.25;2.00;;;;;19.30;54.20;101140.88;5035310;28;46047;-89
2022/05/12 00:18:57;;;;;;;;;4.00;4.00;;;;;19.23;54.41;101143.53;5035148;28;45513;-90
2022/05/12 00:21:22;;;;;;;;;2.75;2.00;;;;;19.32;54.55;101160.47;5034245;28;45420;-90
2022/05/12 00:23:56;;;;;;;;;2.75;2.00;;;;;18.95;54.31;101108.72;5035533;28;45468;-87
2022/05/12 00:26:23;;;;;;;;;4.00;4.00;;;;;19.06;54.88;101124.75;5034432;28;46052;-83
2022/05/12 00:28:49;;;;;;;;;5.50;3.75;;;;;18.93;54.74;101115.81;5034306;28;45609;-84
2022/05/12 00:31:14;;;;;;;;;3.00;3.00;;;;;19.02;55.29;101136.31;5033682;28;45354;-87
2022/05/12 00:33:39;;;;;;;;;3.50;1.75;;;;;19.02;55.35;101141.63;5025339;28;45510;-83
2022/05/12 00:36:05;;;;;;;;;3.00;2.00;;;;;18.85;55.20;101132.63;5012494;28;45422;-79
2022/05/12 00:38:30;;;;;;;;;5.00;3.75;;;;;18.67;55.58;101118.28;5032501;28;45343;-85
2022/05/12 00:40:56;;;;;;;;;2.00;2.00;;;;;18.66;55.26;101126.25;5032032;28;45443;-80
2022/05/12 00:43:53;;;;;;;;;3.00;2.00;;;;;18.93;55.79;101181.53;5032372;28;45370;-88
2022/05/12 00:46:25;;;;;;;;;4.00;4.00;;;;;18.35;55.82;101090.50;5031354;28;45439;-84
2022/05/12 00:48:52;;;;;;;;;2.75;2.00;;;;;18.78;56.02;101177.88;5027021;28;45925;-89
2022/05/12 00:51:24;;;;;;;;;2.25;2.00;;;;;18.66;56.26;101164.41;5015427;28;45209;-85
2022/05/12 00:53:54;;;;;;;;;2.00;2.00;;;;;18.79;55.91;101194.75;5016006;28;45295;-89
2022/05/12 00:56:22;;;;;;;;;2.75;2.75;;;;;18.49;56.20;101147.41;5045278;28;47720;-88
2022/05/12 00:58:51;;;;;;;;;4.00;3.00;;;;;18.30;56.29;101125.94;5014928;28;45925;-88
2022/05/12 01:01:17;;;;;;;;;4.00;3.00;;;;;18.49;56.45;101163.38;5027800;28;45352;-89
2022/05/12 01:03:44;;;;;;;;;4.00;3.00;;;;;18.23;56.76;101123.25;5034805;28;45359;-87
2022/05/12 01:06:11;;;;;;;;;3.00;2.50;;;;;18.29;56.57;101139.25;5038764;28;45779;-89
2022/05/12 01:08:37;;;;;;;;;5.75;3.25;;;;;18.29;56.43;101140.13;5038452;28;45509;-90
2022/05/12 01:11:12;;;;;;;;;3.50;3.25;;;;;18.36;57.05;101172.13;5031675;28;45336;-84
2022/05/12 01:17:41;;;;;;;;;4.00;4.00;;;;;18.23;57.03;101169.34;5040926;28;45510;-81
2022/05/12 01:20:07;;;;;;;;;4.25;2.75;;;;;18.46;57.25;101214.81;5049839;28;45693;-87
2022/05/12 01:22:57;;;;;;;;;2.75;2.25;;;;;18.12;57.35;101159.47;5038699;28;45348;-87
2022/05/12 01:25:27;;;;;;;;;2.00;2.00;;;;;18.35;57.40;101202.28;5034955;28;45194;-81
2022/05/12 01:27:53;;;;;;;;;3.00;2.25;;;;;18.17;57.66;101181.69;5053512;28;45252;-90
2022/05/12 01:30:45;;;;;;;;;2.75;2.75;;;;;18.10;57.59;101194.03;5044849;28;45492;-80
2022/05/12 01:33:57;;;;;;;;;3.00;3.00;;;;;17.21;57.58;101054.72;5040987;28;45501;-81
2022/05/12 01:36:23;;;;;;;;;2.00;2.00;;;;;17.39;58.18;101080.66;4988485;28;45295;-90
2022/05/12 01:38:48;;;;;;;;;4.00;3.00;;;;;17.62;57.97;101122.53;5033501;28;46586;-90
2022/05/12 01:41:15;;;;;;;;;4.00;3.00;;;;;18.01;58.27;101188.63;5035583;28;45529;-89
2022/05/12 01:43:40;;;;;;;;;5.25;3.50;;;;;18.15;58.25;101216.25;5037341;28;45378;-86
2022/05/12 01:46:06;;;;;;;;;5.00;4.00;;;;;17.85;58.06;101170.72;5037877;28;46086;-90
2022/05/12 01:48:31;;;;;;;;;4.00;4.00;;;;;17.91;58.08;101182.28;5038873;28;45520;-90
2022/05/12 01:50:57;;;;;;;;;3.00;3.00;;;;;18.03;57.81;101210.81;5035209;28;45811;-88
2022/05/12 01:53:23;;;;;;;;;3.25;3.00;;;;;17.97;57.42;101189.44;5038092;28;45463;-88
2022/05/12 01:55:49;;;;;;;;;3.25;3.00;;;;;18.11;57.64;101218.88;5035439;28;45478;-88
2022/05/12 01:58:16;;;;;;;;;3.00;3.00;;;;;18.05;57.59;101217.94;5038239;28;46370;-85
2022/05/12 02:00:42;;;;;;;;;5.25;4.00;;;;;18.25;58.04;101251.84;5035511;28;45328;-89
2022/05/12 02:03:07;;;;;;;;;2.00;2.00;;;;;18.12;58.12;101231.28;5036208;28;45508;-89
2022/05/12 02:05:35;;;;;;;;;3.00;3.00;;;;;18.23;57.86;101253.63;5036459;28;45584;-87
2022/05/12 02:08:01;;;;;;;;;3.50;3.50;;;;;17.87;58.04;101198.19;5035367;28;48564;-90
2022/05/12 02:10:32;;;;;;;;;5.25;3.25;;;;;17.95;58.38;101213.38;5036459;28;45840;-89
2022/05/12 02:12:59;;;;;;;;;4.75;4.00;;;;;17.96;58.06;101225.78;5035070;28;45380;-90
2022/05/12 02:15:24;;;;;;;;;4.00;3.50;;;;;18.00;58.26;101235.59;5036064;28;45513;-87
2022/05/12 02:17:50;;;;;;;;;3.50;3.50;;;;;18.02;58.36;101238.28;5036948;28;45659;-89
2022/05/12 02:20:19;;;;;;;;;4.00;3.75;;;;;18.18;57.72;101277.50;5037319;28;45714;-89
2022/05/12 02:22:44;;;;;;;;;2.75;2.75;;;;;17.88;58.18;101226.56;5024680;28;45312;-88
2022/05/12 02:25:11;;;;;;;;;3.75;3.25;;;;;18.11;58.08;101277.41;5029444;28;45560;-84
2022/05/12 02:27:37;;;;;;;;;4.50;3.75;;;;;18.05;58.06;101281.78;5022077;28;46590;-90
2022/05/12 02:30:03;;;;;;;;;3.25;3.25;;;;;18.02;57.89;101284.38;5041782;28;45667;-89
2022/05/12 02:32:28;;;;;;;;;5.00;4.25;;;;;17.68;58.07;101231.59;5042320;28;45803;-85
2022/05/12 02:34:55;;;;;;;;;4.00;4.00;;;;;17.94;57.87;101277.19;5035953;28;45477;-83
2022/05/12 02:37:22;;;;;;;;;5.00;4.00;;;;;17.91;58.17;101287.78;5037635;28;46599;-89
2022/05/12 02:39:47;;;;;;;;;4.50;4.50;;;;;17.06;57.77;101154.56;5036544;28;45362;-88
2022/05/12 02:42:13;;;;;;;;;8.75;7.50;;;;;17.63;58.06;101259.88;5035453;28;45365;-89
2022/05/12 02:44:38;;;;;;;;;6.25;4.00;;;;;17.77;58.24;101287.59;5037637;28;45831;-88
2022/05/12 02:47:07;;;;;;;;;6.00;5.25;;;;;17.68;58.47;101274.13;5035492;28;46259;-88
2022/05/12 02:49:32;;;;;;;;;4.00;4.00;;;;;17.25;58.51;101212.41;5053925;28;45363;-86
2022/05/12 02:51:58;;;;;;;;;5.00;4.00;;;;;17.53;58.56;101278.34;5036768;28;45371;-89
2022/05/12 02:54:23;;;;;;;;;6.00;4.25;;;;;17.56;58.45;101301.44;5038180;28;45786;-89
2022/05/12 02:56:49;;;;;;;;;4.75;4.50;;;;;17.21;58.80;101242.44;5037210;28;47017;-89
2022/05/12 02:59:17;;;;;;;;;5.00;4.00;;;;;17.42;58.74;101295.91;5034387;28;46005;-89
2022/05/12 03:01:43;;;;;;;;;4.00;3.25;;;;;17.38;58.66;101291.41;5034333;28;45891;-88
2022/05/12 03:04:09;;;;;;;;;5.00;5.00;;;;;17.05;58.72;101240.44;5036326;28;45567;-89
2022/05/12 03:06:34;;;;;;;;;3.25;3.25;;;;;16.98;58.95;101240.31;5036339;28;45744;-86
2022/05/12 03:08:59;;;;;;;;;5.25;4.00;;;;;16.90;58.58;101234.00;5037720;28;45622;-88
2022/05/12 03:11:25;;;;;;;;;3.50;3.25;;;;;17.20;58.52;101289.38;5026433;28;45729;-88
2022/05/12 03:13:51;;;;;;;;;3.50;3.50;;;;;17.34;58.43;101318.84;5017178;28;45419;-89
2022/05/12 03:16:18;;;;;;;;;5.50;4.75;;;;;16.91;58.32;101254.38;5015588;28;45482;-86
2022/05/12 03:18:46;;;;;;;;;4.00;4.00;;;;;17.27;58.15;101327.56;5017927;28;46375;-88
2022/05/12 03:21:15;;;;;;;;;2.25;1.75;;;;;17.00;57.62;101274.88;5017602;28;45507;-89
2022/05/12 03:23:41;;;;;;;;;2.25;2.25;;;;;17.07;57.99;101291.81;5027467;28;45469;-88
2022/05/12 03:26:07;;;;;;;;;2.25;2.25;;;;;17.14;57.49;101299.91;5037600;28;46509;-88
2022/05/12 03:28:33;;;;;;;;;1.50;1.50;;;;;17.05;57.20;101282.94;5035530;28;45470;-88
2022/05/12 03:30:59;;;;;;;;;1.25;1.25;;;;;17.05;56.01;101291.78;5036191;28;45465;-83
2022/05/12 03:33:24;;;;;;;;;2.00;1.75;;;;;16.71;56.14;101232.78;5037056;28;45604;-87
2022/05/12 03:35:49;;;;;;;;;3.25;2.50;;;;;16.90;55.69;101268.50;5035221;28;45680;-89
2022/05/12 03:38:15;;;;;;;;;4.00;1.25;;;;;16.90;55.64;101267.63;5031731;28;45806;-80
2022/05/12 03:40:41;;;;;;;;;1.50;1.50;;;;;16.97;55.31;101275.72;5023375;28;45487;-83
2022/05/12 03:43:06;;;;;;;;;1.50;1.50;;;;;16.93;55.49;101275.63;5014427;28;45407;-89
2022/05/12 03:45:33;;;;;;;;;3.25;1.50;;;;;17.26;55.61;101329.31;5014356;28;45646;-88
2022/05/12 03:47:59;;;;;;;;;1.25;1.25;;;;;17.15;55.31;101307.00;5014662;28;46059;-90
2022/05/12 03:50:27;;;;;;;;;3.00;2.00;;;;;17.26;55.49;101331.09;5013221;28;45802;-85
2022/05/12 03:52:54;;;;;;;;;2.00;0.75;;;;;17.24;54.95;101335.47;5014107;28;45604;-88
2022/05/12 03:55:23;;;;;;;;;2.50;1.75;;;;;17.21;55.03;101330.13;5015742;28;45541;-89
2022/05/12 03:57:51;;;;;;;;;1.50;1.50;;;;;16.89;55.35;101279.09;5016502;28;46224;-89
2022/05/12 04:00:24;;;;;;;;;3.50;2.50;;;;;17.10;55.40;101318.41;5014939;28;45746;-86
2022/05/12 04:02:49;;;;;;;;;1.75;1.75;;;;;16.83;55.73;101279.88;5024600;28;45802;-89
2022/05/12 04:05:15;;;;;;;;;3.50;2.25;;;;;16.91;56.19;101296.84;5026054;28;45619;-89
2022/05/12 04:07:43;;;;;;;;;1.75;1.50;;;;;16.77;56.26;101277.13;5024454;28;45387;-89
2022/05/12 04:10:11;;;;;;;;;1.25;1.25;;;;;17.01;56.24;101335.09;5029822;28;45267;-89
2022/05/12 04:12:36;;;;;;;;;2.75;2.75;;;;;16.48;56.58;101253.56;5045572;28;44859;-87
2022/05/12 04:15:03;;;;;;;;;2.00;1.50;;;;;16.81;56.67;101324.09;5043628;28;46576;-86
2022/05/12 04:17:28;;;;;;;;;3.75;3.25;;;;;16.76;56.65;101313.41;5049646;28;45888;-86
2022/05/12 04:19:53;;;;;;;;;2.25;1.50;;;;;16.42;56.78;101269.38;5035972;28;46062;-89
2022/05/12 04:22:19;;;;;;;;;3.00;3.00;;;;;16.69;56.60;101329.13;5026335;28;45426;-89
2022/05/12 04:24:45;;;;;;;;;3.50;3.00;;;;;16.78;56.89;101353.25;5036979;28;45423;-85
2022/05/12 04:27:11;;;;;;;;;3.50;2.75;;;;;16.76;56.62;101349.66;5036151;28;45412;-89
2022/05/12 04:29:44;;;;;;;;;4.25;3.50;;;;;16.19;56.85;101268.91;5038241;28;45271;-86
2022/05/12 04:32:10;;;;;;;;;5.00;4.00;;;;;16.26;56.79;101291.16;5045066;28;45588;-86
2022/05/12 04:37:31;;;;;;;;;4.75;4.00;;;;;16.58;56.85;101349.28;5040183;28;45399;-87
2022/05/12 04:40:04;;;;;;;;;4.00;3.75;;;;;16.26;56.73;101307.09;5057126;28;45273;-85
2022/05/12 04:42:29;;;;;;;;;4.25;3.00;;;;;16.61;57.35;101366.16;5052886;28;45182;-83
2022/05/12 04:44:55;;;;;;;;;3.25;3.25;;;;;16.16;56.99;101287.44;5051379;28;45578;-89
2022/05/12 04:47:20;;;;;;;;;3.75;2.50;;;;;15.98;57.20;101265.84;5056998;28;45604;-88
2022/05/12 04:49:45;;;;;;;;;2.75;2.00;;;;;16.05;56.85;101286.28;5060789;28;45067;-88
2022/05/12 04:52:11;;;;;;;;;4.00;4.00;;;;;16.57;57.34;101384.66;5053732;28;45209;-88
2022/05/12 04:54:38;;;;;;;;;1.25;1.25;;;;;16.56;56.86;101388.16;5056171;28;45856;-89
2022/05/12 04:57:03;;;;;;;;;1.25;1.25;;;;;16.55;57.38;101387.28;5058995;28;45583;-88
2022/05/12 04:59:29;;;;;;;;;4.25;3.75;;;;;16.51;57.49;101380.13;5062802;28;45497;-87
2022/05/12 05:01:54;;;;;;;;;3.00;3.00;;;;;16.53;57.04;101383.69;5053564;28;45129;-86
2022/05/12 05:04:20;;;;;;;;;4.00;3.75;;;;;16.20;57.44;101323.75;5053631;28;46059;-89
2022/05/12 05:06:46;;;;;;;;;2.50;2.50;;;;;16.22;57.48;101322.03;5040838;28;45776;-82
2022/05/12 05:09:11;;;;;;;;;6.00;5.00;;;;;16.27;57.56;101340.69;5045403;28;45307;-93
2022/05/12 05:11:37;;;;;;;;;2.75;2.75;;;;;16.21;57.66;101329.97;5042487;28;45233;-87
2022/05/12 05:14:03;;;;;;;;;4.25;3.25;;;;;16.17;57.18;101325.47;5031798;28;45361;-84
2022/05/12 05:16:29;;;;;;;;;3.00;2.00;;;;;16.44;57.66;101380.84;5031790;28;46281;-85
2022/05/12 05:18:54;;;;;;;;;4.50;3.25;;;;;16.32;57.43;101357.59;5031039;28;45211;-86
2022/05/12 05:21:20;;;;;;;;;4.50;3.00;;;;;16.39;57.63;101369.22;5032517;28;45048;-86
2022/05/12 05:23:45;;;;;;;;;3.50;3.00;;;;;16.42;57.22;101380.81;5033059;28;45543;-87
2022/05/12 05:26:11;;;;;;;;;5.00;3.75;;;;;16.13;57.51;101339.50;5031534;28;45268;-85
2022/05/12 05:28:37;;;;;;;;;4.00;4.00;;;;;16.27;57.48;101371.63;5028574;28;45220;-85
2022/05/12 05:31:04;;;;;;;;;5.00;3.75;;;;;16.30;57.09;101377.00;5033013;28;45026;-87
2022/05/12 05:33:29;;;;;;;;;4.75;3.00;;;;;16.28;57.28;101387.56;5047674;28;45658;-84
2022/05/12 05:35:55;;;;;;;;;2.50;2.50;;;;;16.36;57.24;101412.53;5048321;28;45094;-88
2022/05/12 05:38:20;;;;;;;;;4.00;4.00;;;;;16.20;57.64;101397.09;5048014;28;45339;-87
2022/05/12 05:40:45;;;;;;;;;2.75;2.25;;;;;16.09;57.53;101369.47;5042928;28;45182;-87
2022/05/12 05:43:11;;;;;;;;;4.25;4.25;;;;;16.08;57.33;101375.63;5031110;28;45783;-88
2022/05/12 05:45:36;;;;;;;;;4.25;4.25;;;;;15.94;57.55;101347.06;5029784;28;45214;-87
2022/05/12 05:48:04;;;;;;;;;5.00;3.25;;;;;16.49;57.79;101448.16;5032110;28;45172;-88
2022/05/12 05:53:28;;;;;;;;;4.00;3.25;;;;;16.32;57.37;101413.31;5031690;28;45517;-86
2022/05/12 05:55:59;;;;;;;;;4.00;3.75;;;;;16.51;57.50;101450.00;5032896;28;45343;-86
2022/05/12 05:58:25;;;;;;;;;4.00;3.00;;;;;16.55;57.12;101456.28;5031033;28;45205;-82
2022/05/12 06:00:50;;;;;;;;;5.50;4.00;;;;;16.18;57.34;101377.63;5031479;28;45008;-84
2022/05/12 06:03:17;;;;;;;;;3.50;2.50;;;;;16.43;57.63;101424.16;5047750;28;46121;-85
2022/05/12 06:05:43;;;;;;;;;3.50;3.25;;;;;16.43;57.44;101418.84;5049941;28;45172;-84
2022/05/12 06:08:11;;;;;;;;;3.00;2.25;;;;;16.67;57.23;101464.47;5042432;28;45095;-86
2022/05/12 06:10:37;;;;;;;;;4.75;3.75;;;;;16.49;57.36;101435.78;5049024;28;45291;-85
2022/05/12 06:13:03;;;;;;;;;5.00;3.50;;;;;16.79;57.32;101481.56;5050459;28;45724;-86
2022/05/12 06:15:28;;;;;;;;;3.00;2.00;;;;;16.55;56.90;101439.44;5050124;28;45081;-87
2022/05/12 06:17:54;;;;;;;;;4.75;4.50;;;;;16.50;57.19;101419.03;5031427;28;45060;-86
2022/05/12 06:20:21;;;;;;;;;2.00;2.00;;;;;16.47;56.86;101403.03;5031372;28;45237;-86
2022/05/12 06:22:46;;;;;;;;;4.50;3.50;;;;;16.61;56.86;101436.94;5031118;28;46432;-86
2022/05/12 06:25:14;;;;;;;;;4.25;3.75;;;;;16.75;56.67;101456.72;5040592;28;45761;-84
2022/05/12 06:27:39;;;;;;;;;4.00;4.00;;;;;16.93;56.81;101491.59;5034003;28;45540;-86
2022/05/12 06:30:06;;;;;;;;;4.50;3.25;;;;;16.96;56.99;101489.03;5042783;28;45343;-84
2022/05/12 06:32:32;;;;;;;;;7.25;3.75;;;;;16.92;56.61;101478.31;5013348;28;45439;-85
2022/05/12 06:34:57;;;;;;;;;3.00;3.00;;;;;16.95;56.18;101479.28;5013363;28;45360;-86
2022/05/12 06:37:23;;;;;;;;;3.00;3.00;;;;;16.72;56.02;101433.66;5011211;28;45448;-85
2022/05/12 06:39:48;;;;;;;;;4.00;2.25;;;;;16.79;56.16;101447.94;5021238;28;45555;-87
2022/05/12 06:42:14;;;;;;;;;3.25;3.00;;;;;16.65;56.09;101418.44;5014404;28;45559;-87
2022/05/12 06:44:42;;;;;;;;;2.00;2.00;;;;;17.18;55.65;101500.06;5030457;28;45573;-86
2022/05/12 06:47:09;;;;;;;;;4.00;4.00;;;;;17.09;55.71;101484.84;5033803;28;45460;-85
2022/05/12 06:49:35;;;;;;;;;3.25;3.00;;;;;16.95;55.65;101463.34;5040713;28;45471;-86
2022/05/12 06:52:00;;;;;;;;;1.75;1.00;;;;;17.01;55.31;101473.19;5045569;28;45876;-87
2022/05/12 06:54:25;;;;;;;;;2.25;2.00;;;;;17.20;55.09;101506.31;5046270;28;45109;-87
2022/05/12 06:56:51;;;;;;;;;5.25;3.00;;;;;16.91;55.32;101448.19;5049369;28;45121;-86
2022/05/12 06:59:17;;;;;;;;;4.00;3.00;;;;;16.96;55.16;101445.63;5046003;28;45147;-84
2022/05/12 07:01:42;;;;;;;;;2.50;2.00;;;;;16.99;54.58;101453.66;5028475;28;45554;-86
2022/05/12 07:04:07;;;;;;;;;2.00;2.00;;;;;17.20;54.64;101485.97;5012255;28;45376;-86
2022/05/12 07:06:33;;;;;;;;;4.25;3.25;;;;;16.95;55.10;101436.78;5016909;28;45395;-84
2022/05/12 07:08:58;;;;;;;;;5.00;4.00;;;;;17.31;54.73;101493.25;5017807;28;45419;-84
2022/05/12 07:11:23;;;;;;;;;3.50;3.50;;;;;17.28;54.78;101471.03;5019134;28;45565;-84
2022/05/12 07:13:49;;;;;;;;;4.00;3.75;;;;;17.08;55.02;101437.00;5047557;28;45071;-84
2022/05/12 07:16:14;;;;;;;;;4.25;4.00;;;;;17.26;54.84;101459.50;5044988;28;45461;-87
2022/05/12 07:18:40;;;;;;;;;3.50;3.00;;;;;17.21;55.03;101450.56;5050551;28;45585;-86
2022/05/12 07:26:36;;;;;;;;;2.50;2.25;;;;;17.38;54.35;101482.72;5018561;28;45526;-85
2022/05/12 07:29:07;;;;;;;;;5.25;4.00;;;;;17.09;54.71;101433.47;5015475;28;45503;-86
2022/05/12 07:31:32;;;;;;;;;2.50;2.50;;;;;17.17;54.47;101437.19;5010320;28;46229;-86
2022/05/12 07:33:58;;;;;;;;;3.75;3.25;;;;;17.24;54.43;101442.66;5010848;28;46102;-85
2022/05/12 07:36:34;;;;;;;;;5.25;2.50;;;;;17.58;54.33;101495.50;5010384;28;45760;-86
2022/05/12 07:39:00;;;;;;;;;2.25;1.50;;;;;17.32;54.15;101431.25;5010865;28;45341;-87
2022/05/12 07:41:26;;;;;;;;;2.75;2.00;;;;;17.49;53.10;101467.00;5010304;28;45522;-86
2022/05/12 07:43:54;;;;;;;;;2.00;1.50;;;;;17.60;52.70;101488.47;5010153;28;45820;-87
2022/05/12 07:46:22;;;;;;;;;2.50;1.50;;;;;17.54;52.29;101470.66;5008790;28;45530;-83
2022/05/12 07:48:48;;;;;;;;;3.25;3.00;;;;;17.69;53.29;101496.59;5010480;28;45460;-86
2022/05/12 07:51:14;;;;;;;;;2.50;2.00;;;;;17.44;52.69;101458.06;5010446;28;45354;-86
2022/05/12 07:53:39;;;;;;;;;3.75;3.00;;;;;17.62;52.74;101492.03;5010128;28;45503;-86
2022/05/12 07:56:06;;;;;;;;;1.50;1.50;;;;;17.57;52.23;101478.66;5010603;28;45480;-84
2022/05/12 07:58:32;;;;;;;;;1.75;1.75;;;;;17.73;53.32;101503.78;5009948;28;45807;-85
2022/05/12 08:00:58;;;;;;;;;2.25;1.50;;;;;17.36;52.34;101438.41;5041821;28;47227;-85
2022/05/12 08:03:25;;;;;;;;;1.50;1.50;;;;;17.40;52.28;101435.84;5010799;28;45581;-86
2022/05/12 08:05:50;;;;;;;;;1.25;1.25;;;;;17.86;52.13;101510.22;5009819;28;45487;-85
2022/05/12 08:08:16;;;;;;;;;1.50;1.50;;;;;17.70;51.87;101471.81;5009058;28;45534;-86
2022/05/12 08:10:41;;;;;;;;;1.25;1.25;;;;;17.63;52.09;101443.31;5013425;28;46091;-86
2022/05/12 08:13:14;;;;;;;;;3.00;2.25;;;;;17.68;51.92;101446.94;5029649;28;45531;-87
2022/05/12 08:15:47;;;;;;;;;3.25;2.25;;;;;17.77;51.52;101456.00;5028533;28;45822;-87
2022/05/12 08:18:15;;;;;;;;;1.00;1.00;;;;;17.93;51.39;101486.41;5030525;28;45322;-87
2022/05/12 08:20:42;;;;;;;;;3.00;3.00;;;;;17.83;50.70;101452.53;5029320;28;45793;-85
2022/05/12 08:23:08;;;;;;;;;1.25;1.00;;;;;17.73;50.58;101446.19;5030549;28;45843;-85
2022/05/12 08:25:33;;;;;;;;;4.00;2.00;;;;;18.12;50.78;101529.25;5030186;28;45507;-86
2022/05/12 08:27:58;;;;;;;;;2.75;2.00;;;;;18.03;50.85;101509.63;5029396;28;45514;-86
2022/05/12 08:30:24;;;;;;;;;1.00;1.00;;;;;17.87;51.18;101472.09;5029374;28;45452;-87
2022/05/12 08:32:49;;;;;;;;;2.25;0.75;;;;;18.07;50.91;101496.38;5029717;28;45585;-87
2022/05/12 08:35:15;;;;;;;;;2.00;1.75;;;;;18.33;50.06;101516.31;5029810;28;45454;-84
2022/05/12 08:37:40;;;;;;;;;1.25;1.00;;;;;18.40;50.07;101512.84;5029427;28;45487;-86
2022/05/12 08:40:11;;;;;;;;;4.00;1.75;;;;;18.31;50.03;101499.41;5029853;28;46453;-85
2022/05/12 08:42:47;;;;;;;;;1.50;1.50;;;;;18.43;49.92;101531.53;5029063;28;46013;-86
2022/05/12 08:45:16;;;;;;;;;2.25;2.00;;;;;18.29;49.40;101496.72;5028659;28;45427;-87
2022/05/12 08:47:46;;;;;;;;;2.25;2.00;;;;;18.45;49.69;101524.47;5029468;28;45663;-85
2022/05/12 08:50:22;;;;;;;;;2.75;2.75;;;;;18.30;49.40;101479.00;5029337;28;46326;-85
2022/05/12 08:52:55;;;;;;;;;3.75;2.75;;;;;18.21;49.67;101433.63;5029446;28;45523;-84
2022/05/12 08:55:39;;;;;;;;;3.00;2.75;;;;;18.50;49.79;101460.63;5030487;28;45705;-86
2022/05/12 08:58:09;;;;;;;;;3.50;2.75;;;;;18.88;49.36;101514.44;5029425;28;44872;-87
2022/05/12 09:00:44;;;;;;;;;3.00;2.75;;;;;18.76;49.36;101490.31;5028888;28;45421;-87
2022/05/12 09:03:36;;;;;;;;;1.00;1.00;;;;;18.78;49.13;101453.94;5029843;28;45400;-84
2022/05/12 09:06:02;;;;;;;;;3.75;2.25;;;;;19.40;48.88;101499.03;5029304;28;45808;-87
2022/05/12 09:08:30;;;;;;;;;2.75;1.75;;;;;19.67;49.14;101497.59;5029309;28;45530;-86
2022/05/12 09:10:55;;;;;;;;;2.00;2.00;;;;;19.87;48.02;101506.66;5029047;28;46347;-86
2022/05/12 09:13:26;;;;;;;;;3.00;3.00;;;;;19.82;47.84;101479.94;5029286;28;45371;-84
2022/05/12 09:16:10;;;;;;;;;3.00;3.00;;;;;19.82;47.28;101453.25;5027949;28;45475;-87
2022/05/12 09:18:37;;;;;;;;;2.00;1.75;;;;;20.10;47.66;101470.38;5029452;28;45814;-85
2022/05/12 09:21:08;;;;;;;;;1.50;1.25;;;;;20.32;47.09;101475.84;5028668;28;46112;-87
2022/05/12 09:23:35;;;;;;;;;2.00;1.75;;;;;20.44;46.12;101475.03;5028919;28;45264;-84
2022/05/12 09:26:00;;;;;;;;;2.50;2.00;;;;;20.72;46.00;101502.81;5030847;28;45335;-87
2022/05/12 09:28:34;;;;;;;;;3.00;3.00;;;;;20.83;46.00;101509.97;5032006;28;45437;-85
2022/05/12 09:31:12;;;;;;;;;3.00;3.00;;;;;20.93;45.86;101496.66;5032561;28;46327;-87
2022/05/12 09:33:38;;;;;;;;;2.00;2.00;;;;;21.00;45.68;101493.16;5032105;28;45905;-83
2022/05/12 09:36:08;;;;;;;;;3.00;2.75;;;;;21.05;46.16;101492.28;5032645;28;45382;-86
2022/05/12 09:38:42;;;;;;;;;3.25;1.25;;;;;20.97;44.97;101469.97;5032747;28;45625;-82
2022/05/12 09:41:22;;;;;;;;;2.50;2.00;;;;;20.96;44.88;101465.50;5032531;28;45505;-87
2022/05/12 09:43:53;;;;;;;;;4.50;3.00;;;;;20.86;45.20;101434.31;5031935;28;45410;-87
2022/05/12 09:46:23;;;;;;;;;4.00;3.00;;;;;21.18;44.69;101478.94;5032003;28;45554;-86
2022/05/12 09:48:49;;;;;;;;;1.75;1.75;;;;;21.35;45.34;101490.63;5031514;28;45773;-86
2022/05/12 09:51:32;;;;;;;;;2.50;2.00;;;;;21.13;44.82;101449.50;5032798;28;45527;-86
2022/05/12 09:54:19;;;;;;;;;3.00;2.75;;;;;21.17;44.66;101478.03;5031936;28;45974;-85
2022/05/12 09:57:01;;;;;;;;;2.25;2.25;;;;;21.29;45.07;101503.94;5031851;28;45487;-85
2022/05/12 09:59:30;;;;;;;;;2.00;2.00;;;;;20.93;44.51;101430.75;5032445;28;45431;-84
2022/05/12 10:02:01;;;;;;;;;1.00;0.50;;;;;20.83;44.66;101435.16;5031717;28;45719;-87
2022/05/12 10:10:11;;;;;;;;;2.00;2.00;;;;;20.88;45.14;101480.63;5032157;28;45693;-87
2022/05/12 10:12:49;;;;;;;;;2.25;2.25;;;;;20.86;46.01;101482.41;5031522;28;45539;-85
2022/05/12 10:15:25;;;;;;;;;4.75;3.00;;;;;20.95;45.66;101477.09;5031957;28;46059;-85
2022/05/12 10:17:59;;;;;;;;;3.00;1.00;;;;;21.09;44.98;101470.03;5031920;28;45557;-87
2022/05/12 10:20:27;;;;;;;;;2.00;2.00;;;;;21.05;45.08;101441.50;5031485;28;45464;-85
2022/05/12 10:23:27;;;;;;;;;2.00;2.00;;;;;21.44;44.72;101477.25;5031939;28;45453;-87
2022/05/12 10:26:07;;;;;;;;;2.00;2.00;;;;;21.51;44.83;101467.47;5031180;28;45663;-87
2022/05/12 10:28:44;;;;;;;;;2.00;2.00;;;;;21.57;44.22;101471.00;5032183;28;45456;-85
2022/05/12 10:31:12;;;;;;;;;2.00;2.00;;;;;21.52;43.88;101472.78;5032536;28;45319;-85
2022/05/12 10:33:57;;;;;;;;;3.00;2.00;;;;;21.49;43.84;101478.16;5030207;28;48013;-85
2022/05/12 10:36:49;;;;;;;;;2.75;2.00;;;;;21.41;43.53;101474.56;5032361;28;45407;-85
2022/05/12 10:39:26;;;;;;;;;2.00;2.00;;;;;21.37;43.98;101479.00;5031734;28;45577;-85
2022/05/12 10:42:06;;;;;;;;;2.00;1.00;;;;;21.33;43.44;101476.38;5030761;28;45672;-86
2022/05/12 10:45:13;;;;;;;;;2.75;2.75;;;;;21.19;43.76;101449.56;5029642;28;46509;-87
2022/05/12 10:47:54;;;;;;;;;1.25;1.25;;;;;21.44;43.91;101463.88;5003073;28;45516;-85
2022/05/12 10:50:34;;;;;;;;;2.00;2.00;;;;;21.61;43.51;101458.53;5030341;28;45583;-84
2022/05/12 10:53:15;;;;;;;;;3.25;3.00;;;;;21.51;43.43;101430.00;5031262;28;45363;-87
2022/05/12 10:55:48;;;;;;;;;2.75;2.00;;;;;21.80;43.46;101468.38;5030509;28;45775;-85
2022/05/12 10:58:38;;;;;;;;;2.50;2.50;;;;;21.91;43.22;101463.00;5031492;28;45884;-82
2022/05/12 11:01:09;;;;;;;;;2.00;2.00;;;;;22.01;42.93;101461.22;5031175;28;45323;-86
2022/05/12 11:03:59;;;;;;;;;3.00;3.00;;;;;22.09;42.87;101467.47;5030362;28;45704;-84
2022/05/12 11:06:38;;;;;;;;;2.00;1.75;;;;;22.07;42.72;101448.72;5027552;28;46711;-85
2022/05/12 11:09:29;;;;;;;;;4.00;3.50;;;;;22.10;42.72;101462.09;5044739;28;45549;-84
2022/05/12 11:11:59;;;;;;;;;2.75;2.75;;;;;21.76;42.55;101415.72;5035411;28;45039;-84
2022/05/12 11:14:39;;;;;;;;;2.00;1.75;;;;;21.95;42.68;101426.44;5049823;28;45015;-84
2022/05/12 11:17:38;;;;;;;;;2.25;2.00;;;;;22.20;42.22;101462.13;5047957;28;47805;-85
2022/05/12 11:20:38;;;;;;;;;2.00;2.00;;;;;22.13;42.87;101458.56;5048094;28;45104;-81
2022/05/12 11:23:09;;;;;;;;;2.75;2.00;;;;;22.29;42.55;101459.44;5032395;28;45155;-85
2022/05/12 11:25:58;;;;;;;;;3.50;3.00;;;;;22.45;42.04;101458.47;5028406;28;45288;-83
2022/05/12 11:31:47;;;;;;;;;2.00;1.00;;;;;22.45;41.94;101437.06;5024116;28;45620;-84
2022/05/12 11:34:19;;;;;;;;;1.00;1.00;;;;;22.55;42.14;101448.63;5028432;28;45491;-83
2022/05/12 11:36:48;;;;;;;;;1.75;1.75;;;;;22.46;41.65;101395.97;5010897;28;45485;-83
2022/05/12 11:39:31;;;;;;;;;2.00;2.00;;;;;22.74;40.86;101412.81;5010304;28;45547;-83
2022/05/12 11:42:05;;;;;;;;;1.00;1.00;;;;;23.23;40.43;101457.28;5009391;28;45501;-83
2022/05/12 11:44:39;;;;;;;;;2.25;2.25;;;;;23.23;40.98;101451.91;5008443;28;45649;-84
2022/05/12 11:47:10;;;;;;;;;2.00;1.75;;;;;23.23;40.24;101451.91;5009467;28;45519;-84
2022/05/12 11:50:01;;;;;;;;;3.25;2.25;;;;;23.14;40.85;101463.59;5009591;28;46302;-83
2022/05/12 11:52:29;;;;;;;;;2.00;2.00;;;;;23.13;41.44;101468.06;5024770;28;46684;-83
2022/05/12 11:55:05;;;;;;;;;2.00;2.00;;;;;22.87;41.21;101417.22;5009565;28;45474;-82
2022/05/12 11:57:32;;;;;;;;;3.00;2.25;;;;;23.18;41.40;101463.56;5009603;28;45478;-84
2022/05/12 12:00:00;;;;;;;;;3.50;3.00;;;;;23.17;41.00;101426.91;5024600;28;47354;-83